createdAt,value
2022-07-30T00:02:56.174Z,0.3
2022-07-30T00:05:56.121Z,0.65
2022-07-30T00:08:56.161Z,0.5
2022-07-30T00:11:56.206Z,0.15
2022-07-30T00:14:56.147Z,0
2022-07-30T00:17:56.168Z,0
2022-07-30T00:20:57.281Z,0
2022-07-30T00:24:01.743Z,0
2022-07-30T00:26:56.196Z,0
2022-07-30T00:29:56.213Z,0
2022-07-30T00:32:56.183Z,0
2022-07-30T00:35:56.198Z,0.2
2022-07-30T00:38:56.157Z,0.15
2022-07-30T00:41:56.211Z,0
2022-07-30T00:44:56.245Z,0.4
2022-07-30T00:47:56.201Z,0.25
2022-07-30T00:50:58.062Z,0.2
2022-07-30T00:53:56.197Z,0.2
2022-07-30T00:56:56.198Z,0
2022-07-30T00:59:56.246Z,0.4
2022-07-30T01:02:56.160Z,0.2
2022-07-30T01:05:56.245Z,0.2
2022-07-30T01:08:56.241Z,1
2022-07-30T01:11:56.266Z,0.85
2022-07-30T01:14:56.259Z,1.65
2022-07-30T01:17:56.203Z,1.65
2022-07-30T01:20:56.256Z,1.7
2022-07-30T01:23:56.517Z,1.2
2022-07-30T01:26:56.206Z,1.1
2022-07-30T01:29:56.246Z,1.25
2022-07-30T01:32:56.247Z,1.95
2022-07-30T01:35:56.259Z,0.65
2022-07-30T01:38:56.252Z,1.2
2022-07-30T01:41:56.240Z,1.45
2022-07-30T01:44:56.251Z,1.85
2022-07-30T01:47:56.301Z,1.85
2022-07-30T01:50:56.263Z,1.95
2022-07-30T01:53:56.284Z,1.9
2022-07-30T01:56:56.275Z,1.25
2022-07-30T01:59:56.230Z,1.75
2022-07-30T02:02:56.252Z,1.4
2022-07-30T02:05:56.246Z,1.55
2022-07-30T02:08:56.268Z,1.7
2022-07-30T02:11:56.263Z,2
2022-07-30T02:14:56.270Z,1.7
2022-07-30T02:17:56.295Z,1.4
2022-07-30T02:20:57.278Z,1.5
2022-07-30T02:23:56.311Z,2
2022-07-30T02:26:56.262Z,1.7
2022-07-30T02:29:56.438Z,1.3
2022-07-30T02:32:56.285Z,1.2
2022-07-30T02:35:56.325Z,1.85
2022-07-30T02:38:56.306Z,1.35
2022-07-30T02:41:56.306Z,2.5
2022-07-30T02:44:56.280Z,1.7
2022-07-30T02:47:56.303Z,1.45
2022-07-30T02:50:56.315Z,1
2022-07-30T02:53:56.346Z,1.45
2022-07-30T02:56:56.306Z,1.8
2022-07-30T02:59:56.317Z,1.8
2022-07-30T03:02:57.894Z,2.2
2022-07-30T03:05:56.328Z,1.7
2022-07-30T03:08:56.326Z,1.5
2022-07-30T03:11:56.347Z,1.55
2022-07-30T03:14:56.306Z,1.45
2022-07-30T03:17:56.716Z,1.4
2022-07-30T03:20:56.328Z,1.3
2022-07-30T03:23:56.318Z,1.4
2022-07-30T03:26:56.331Z,1.35
2022-07-30T03:29:56.367Z,1.75
2022-07-30T03:32:56.341Z,1.3
2022-07-30T03:35:56.336Z,1.85
2022-07-30T03:38:56.362Z,1.5
2022-07-30T03:41:58.726Z,1.4
2022-07-30T03:44:56.346Z,1.9
2022-07-30T03:47:56.340Z,2.3
2022-07-30T03:50:56.343Z,1.8
2022-07-30T03:53:56.341Z,1.45
2022-07-30T03:56:56.348Z,2.05
2022-07-30T03:59:56.333Z,1.4
2022-07-30T04:02:56.364Z,1.35
2022-07-30T04:05:56.386Z,1.85
2022-07-30T04:08:56.393Z,1.4
2022-07-30T04:11:56.401Z,1.9
2022-07-30T04:14:56.358Z,1.45
2022-07-30T04:17:56.440Z,1.05
2022-07-30T04:20:56.406Z,2.6
2022-07-30T04:24:02.100Z,2
2022-07-30T04:26:56.401Z,1.9
2022-07-30T04:29:56.392Z,2.6
2022-07-30T04:32:56.407Z,2.35
2022-07-30T04:35:56.380Z,1.9
2022-07-30T04:38:56.404Z,1.8
2022-07-30T04:41:56.442Z,1.45
2022-07-30T04:44:56.481Z,1.7
2022-07-30T04:47:56.817Z,1.6
2022-07-30T04:50:56.513Z,3
2022-07-30T04:53:56.393Z,2.25
2022-07-30T04:56:56.439Z,1.55
2022-07-30T04:59:56.386Z,1.75
2022-07-30T05:02:56.482Z,1.75
2022-07-30T05:05:58.539Z,1.75
2022-07-30T05:08:56.443Z,1.95
2022-07-30T05:11:56.454Z,2.05
2022-07-30T05:14:56.434Z,2.05
2022-07-30T05:17:56.446Z,2.4
2022-07-30T05:20:56.462Z,1.75
2022-07-30T05:23:56.592Z,1.55
2022-07-30T05:26:56.442Z,1.15
2022-07-30T05:29:56.499Z,1.95
2022-07-30T05:32:57.026Z,2.2
2022-07-30T05:35:56.454Z,1.7
2022-07-30T05:38:56.456Z,1.95
2022-07-30T05:41:56.487Z,1.85
2022-07-30T05:44:56.478Z,1.5
2022-07-30T05:47:56.498Z,2.05
2022-07-30T05:50:56.815Z,1.6
2022-07-30T05:53:56.503Z,2.05
2022-07-30T05:56:56.467Z,1.85
2022-07-30T05:59:56.510Z,1.35
2022-07-30T06:02:56.484Z,1.25
2022-07-30T06:05:56.521Z,1.35
2022-07-30T06:08:56.540Z,1.3
2022-07-30T06:11:58.433Z,1.05
2022-07-30T06:14:56.602Z,1.1
2022-07-30T06:18:02.131Z,1.45
2022-07-30T06:20:56.534Z,1.1
2022-07-30T06:23:56.525Z,0.95
2022-07-30T06:26:56.511Z,1.5
2022-07-30T06:29:56.517Z,1.4
2022-07-30T06:32:56.572Z,1.15
2022-07-30T06:35:56.532Z,1.75
2022-07-30T06:38:56.549Z,1.3
2022-07-30T06:41:56.479Z,1.85
2022-07-30T06:44:56.601Z,1.05
2022-07-30T06:47:56.583Z,1.45
2022-07-30T06:50:56.544Z,1.6
2022-07-30T06:53:56.587Z,1.25
2022-07-30T06:56:56.643Z,1.15
2022-07-30T06:59:58.322Z,1.7
2022-07-30T07:02:56.514Z,1.6
2022-07-30T07:05:56.583Z,1.9
2022-07-30T07:08:56.539Z,1.2
2022-07-30T07:11:56.619Z,2
2022-07-30T07:14:56.538Z,1.6
2022-07-30T07:17:58.043Z,1.85
2022-07-30T07:20:56.656Z,1.4
2022-07-30T07:23:56.617Z,1.65
2022-07-30T07:26:56.618Z,1.8
2022-07-30T07:30:04.449Z,1.25
2022-07-30T07:32:56.573Z,2
2022-07-30T07:35:56.602Z,1.35
2022-07-30T07:38:56.612Z,1.25
2022-07-30T07:41:56.643Z,1.95
2022-07-30T07:44:56.664Z,1.75
2022-07-30T07:47:56.597Z,1.15
2022-07-30T07:51:01.051Z,1.1
2022-07-30T07:54:20.215Z,1.5
2022-07-30T07:56:56.930Z,1.7
2022-07-30T07:59:56.608Z,1.35
2022-07-30T08:02:57.134Z,1.6
2022-07-30T08:06:06.134Z,2.2
2022-07-30T08:08:56.614Z,1.45
2022-07-30T08:11:56.609Z,2
2022-07-30T08:14:56.748Z,2.5
2022-07-30T08:17:56.613Z,1.55
2022-07-30T08:20:56.588Z,1.5
2022-07-30T08:23:56.623Z,2
2022-07-30T08:26:56.638Z,1.7
2022-07-30T08:29:56.589Z,2.25
2022-07-30T08:32:56.629Z,1.75
2022-07-30T08:36:02.985Z,3.1
2022-07-30T08:38:56.642Z,1.6
2022-07-30T08:41:56.655Z,1.85
2022-07-30T08:44:56.627Z,2.6
2022-07-30T08:47:56.724Z,1.75
2022-07-30T08:50:56.702Z,1.75
2022-07-30T08:53:56.785Z,2.55
2022-07-30T08:56:56.642Z,2
2022-07-30T09:00:02.085Z,2.45
2022-07-30T09:02:56.938Z,1.95
2022-07-30T09:05:56.933Z,2.6
2022-07-30T09:08:56.804Z,3.25
2022-07-30T09:11:56.892Z,1.6
2022-07-30T09:14:56.707Z,2.5
2022-07-30T09:17:57.142Z,2.65
2022-07-30T09:20:56.894Z,2.75
2022-07-30T09:23:56.903Z,2.7
2022-07-30T09:26:56.794Z,1.9
2022-07-30T09:29:56.731Z,2.8
2022-07-30T09:32:56.962Z,2.25
2022-07-30T09:35:56.888Z,3.45
2022-07-30T09:38:56.843Z,2.1
2022-07-30T09:41:56.693Z,3.15
2022-07-30T09:44:56.739Z,2.25
2022-07-30T09:47:56.674Z,2.3
2022-07-30T09:50:58.313Z,2.5
2022-07-30T09:53:58.603Z,3.35
2022-07-30T09:56:56.737Z,2.45
2022-07-30T09:59:57.504Z,2.6
2022-07-30T10:02:56.715Z,2.6
2022-07-30T10:05:56.709Z,2.2
2022-07-30T10:08:56.722Z,3.75
2022-07-30T10:11:56.672Z,2.95
2022-07-30T10:14:56.768Z,3.1
2022-07-30T10:17:57.224Z,2.85
2022-07-30T10:20:56.774Z,4.4
2022-07-30T10:23:58.627Z,3.2
2022-07-30T10:26:56.728Z,2.5
2022-07-30T10:29:57.307Z,2.85
2022-07-30T10:32:56.698Z,2.8
2022-07-30T10:35:57.003Z,2.65
2022-07-30T10:38:56.732Z,2.4
2022-07-30T10:41:56.779Z,1.95
2022-07-30T10:44:56.752Z,3
2022-07-30T10:47:56.791Z,3.35
2022-07-30T10:50:56.748Z,3.05
2022-07-30T10:53:57.128Z,2.5
2022-07-30T10:56:58.169Z,3.2
2022-07-30T10:59:57.899Z,3.55
2022-07-30T11:02:57.712Z,2.55
2022-07-30T11:05:56.819Z,2.35
2022-07-30T11:08:58.342Z,3
2022-07-30T11:12:06.574Z,2.4
2022-07-30T11:14:57.233Z,2.25
2022-07-30T11:17:56.783Z,3.75
2022-07-30T11:20:56.907Z,2
2022-07-30T11:23:57.687Z,1.8
2022-07-30T11:26:56.783Z,2.1
2022-07-30T11:29:58.128Z,4.1
2022-07-30T11:32:57.343Z,3.2
2022-07-30T11:35:56.784Z,2.5
2022-07-30T11:39:05.351Z,2.4
2022-07-30T11:41:56.832Z,3.55
2022-07-30T11:45:00.975Z,2.1
2022-07-30T11:47:56.860Z,4.7
2022-07-30T11:51:02.092Z,1.8
2022-07-30T11:53:56.809Z,2
2022-07-30T11:57:02.288Z,1.65
2022-07-30T11:59:56.802Z,3.2
2022-07-30T12:02:58.834Z,2.25
2022-07-30T12:05:56.836Z,2.5
2022-07-30T12:08:59.759Z,1.6
2022-07-30T12:11:56.810Z,2.9
2022-07-30T12:15:02.185Z,2.4
2022-07-30T12:20:59.269Z,1.75
2022-07-30T12:23:56.883Z,2.4
2022-07-30T12:26:56.805Z,1.6
2022-07-30T12:29:56.840Z,2.05
2022-07-30T12:32:56.825Z,2.05
2022-07-30T12:35:56.881Z,1.25
2022-07-30T12:38:56.806Z,2.1
2022-07-30T12:41:56.871Z,2.55
2022-07-30T12:44:56.866Z,2.45
2022-07-30T12:47:56.825Z,1.85
2022-07-30T12:50:56.874Z,2.6
2022-07-30T12:53:56.817Z,1.95
2022-07-30T12:56:56.883Z,2.15
2022-07-30T12:59:56.834Z,2.15
2022-07-30T13:02:56.880Z,2
2022-07-30T13:05:56.913Z,2.3
2022-07-30T13:08:56.905Z,1.85
2022-07-30T13:11:56.912Z,1.8
2022-07-30T13:14:56.887Z,2.7
2022-07-30T13:17:56.893Z,1.5
2022-07-30T13:20:56.823Z,2.25
2022-07-30T13:23:56.849Z,1.55
2022-07-30T13:26:56.887Z,2.25
2022-07-30T13:29:56.985Z,1.35
2022-07-30T13:32:56.947Z,1.4
2022-07-30T13:35:56.923Z,1.8
2022-07-30T13:38:56.893Z,1.4
2022-07-30T13:41:56.938Z,1.8
2022-07-30T13:44:56.870Z,1.65
2022-07-30T13:47:56.962Z,1.5
2022-07-30T13:50:56.923Z,3.15
2022-07-30T13:53:56.923Z,1.85
2022-07-30T13:56:56.888Z,1.45
2022-07-30T13:59:57.049Z,2.25
2022-07-30T14:02:56.917Z,2
2022-07-30T14:06:10.213Z,2.35
2022-07-30T14:08:56.938Z,2.3
2022-07-30T14:11:56.900Z,1.7
2022-07-30T14:14:56.930Z,1.95
2022-07-30T14:17:57.724Z,1.55
2022-07-30T14:20:57.035Z,2.1
2022-07-30T14:23:56.884Z,1.9
2022-07-30T14:26:59.317Z,1.2
2022-07-30T14:29:56.966Z,2.05
2022-07-30T14:33:04.560Z,2.45
2022-07-30T14:35:56.981Z,1.75
2022-07-30T14:38:57.675Z,1.65
2022-07-30T14:41:57.027Z,1.35
2022-07-30T14:44:57.978Z,2.15
2022-07-30T14:47:56.942Z,1.85
2022-07-30T14:51:14.648Z,2.65
2022-07-30T14:53:57.784Z,1.55
2022-07-30T14:56:59.563Z,2.6
2022-07-30T14:59:56.954Z,3.55
2022-07-30T15:02:56.998Z,2.25
2022-07-30T15:05:56.988Z,1.7
2022-07-30T15:08:57.000Z,1.3
2022-07-30T15:12:09.119Z,1.7
2022-07-30T15:14:56.984Z,3.05
2022-07-30T15:17:56.970Z,2.2
2022-07-30T15:20:57.042Z,2.2
2022-07-30T15:23:56.984Z,2.35
2022-07-30T15:26:57.013Z,1.9
2022-07-30T15:29:57.024Z,2.55
2022-07-30T15:32:57.070Z,1.95
2022-07-30T15:35:57.045Z,2.6
2022-07-30T15:38:57.014Z,1.05
2022-07-30T15:41:57.162Z,1.5
2022-07-30T15:45:16.457Z,1.95
2022-07-30T15:47:57.021Z,1.55
2022-07-30T15:50:57.039Z,1.2
2022-07-30T15:53:57.006Z,0.7
2022-07-30T15:57:02.019Z,1.3
2022-07-30T15:59:57.018Z,1.55
2022-07-30T16:02:57.029Z,1.35
2022-07-30T16:05:57.058Z,1.4
2022-07-30T16:08:56.985Z,1.3
2022-07-30T16:11:57.076Z,1.15
2022-07-30T16:14:57.062Z,1.8
2022-07-30T16:17:57.037Z,2.2
2022-07-30T16:20:57.058Z,1.95
2022-07-30T16:23:57.206Z,2.3
2022-07-30T16:26:57.070Z,1.95
2022-07-30T16:29:57.294Z,2.5
2022-07-30T16:32:57.258Z,2.25
2022-07-30T16:35:57.069Z,2.6
2022-07-30T16:38:57.088Z,2.85
2022-07-30T16:41:57.186Z,2.25
2022-07-30T16:44:57.094Z,3.65
2022-07-30T16:47:57.160Z,2.2
2022-07-30T16:50:57.053Z,1.25
2022-07-30T16:53:57.087Z,2.75
2022-07-30T16:56:57.138Z,1.45
2022-07-30T16:59:57.143Z,2.1
2022-07-30T17:02:57.632Z,1.2
2022-07-30T17:05:57.110Z,2.3
2022-07-30T17:08:57.113Z,1.6
2022-07-30T17:12:00.232Z,1.35
2022-07-30T17:14:59.725Z,2.65
2022-07-30T17:17:57.164Z,1.4
2022-07-30T17:20:57.294Z,2.2
2022-07-30T17:23:57.181Z,2.15
2022-07-30T17:26:57.128Z,2.7
2022-07-30T17:29:57.157Z,1.65
2022-07-30T17:32:57.150Z,2.3
2022-07-30T17:35:57.103Z,1.05
2022-07-30T17:38:57.220Z,1.6
2022-07-30T17:42:02.906Z,0.8
2022-07-30T17:44:57.120Z,0.5
2022-07-30T17:47:57.162Z,0.55
2022-07-30T17:50:57.140Z,0.75
2022-07-30T17:53:57.087Z,1.5
2022-07-30T17:56:57.163Z,0.65
2022-07-30T17:59:57.160Z,0.55
2022-07-30T18:02:57.140Z,0.65
2022-07-30T18:05:57.178Z,0.5
2022-07-30T18:08:57.131Z,0.85
2022-07-30T18:11:57.159Z,0.45
2022-07-30T18:14:57.165Z,0.5
2022-07-30T18:17:57.167Z,0.6
2022-07-30T18:20:57.178Z,0.55
2022-07-30T18:23:58.799Z,0.6
2022-07-30T18:26:57.193Z,0.65
2022-07-30T18:29:57.165Z,1.2
2022-07-30T18:32:57.235Z,0.45
2022-07-30T18:35:57.141Z,0.3
2022-07-30T18:38:57.207Z,0.35
2022-07-30T18:41:57.119Z,1.15
2022-07-30T18:44:57.208Z,0.35
2022-07-30T18:47:57.176Z,0.25
2022-07-30T18:50:57.215Z,0.25
2022-07-30T18:53:57.526Z,0.3
2022-07-30T18:56:57.234Z,0.1
2022-07-30T18:59:57.219Z,0.05
2022-07-30T19:02:57.194Z,0.25
2022-07-30T19:05:57.294Z,0.3
2022-07-30T19:08:57.220Z,0.25
2022-07-30T19:11:57.242Z,0.2
2022-07-30T19:14:57.242Z,0.25
2022-07-30T19:17:57.209Z,0.2
2022-07-30T19:20:57.284Z,0.2
2022-07-30T19:23:58.220Z,0.25
2022-07-30T19:26:57.366Z,0.35
2022-07-30T19:29:57.422Z,0.25
2022-07-30T19:32:57.840Z,0.25
2022-07-30T19:35:57.389Z,0
2022-07-30T19:38:57.205Z,0.2
2022-07-30T19:41:59.145Z,0
2022-07-30T19:44:57.231Z,0
2022-07-30T19:47:57.211Z,0
2022-07-30T19:50:57.252Z,0
2022-07-30T19:53:57.404Z,0.4
2022-07-30T19:56:57.805Z,0.25
2022-07-30T20:00:04.135Z,0.35
2022-07-30T20:02:58.852Z,0.25
2022-07-30T20:06:02.330Z,0.25
2022-07-30T20:08:57.517Z,0.25
2022-07-30T20:11:57.274Z,0
2022-07-30T20:14:57.253Z,0.1
2022-07-30T20:17:57.696Z,0.2
2022-07-30T20:20:58.510Z,0.65
2022-07-30T20:23:57.806Z,0.35
2022-07-30T20:26:57.241Z,0.45
2022-07-30T20:29:59.070Z,0.4
2022-07-30T20:32:59.255Z,0.35
2022-07-30T20:35:57.372Z,0.35
2022-07-30T20:38:57.605Z,0.4
2022-07-30T20:41:57.371Z,0.05
2022-07-30T20:44:57.418Z,0.25
2022-07-30T20:47:58.631Z,0.3
2022-07-30T20:50:58.080Z,0.25
2022-07-30T20:54:00.156Z,0.55
2022-07-30T20:56:57.442Z,0.35
2022-07-30T20:59:57.297Z,0.5
2022-07-30T21:02:57.386Z,0.65
2022-07-30T21:05:57.291Z,0.5
2022-07-30T21:08:57.534Z,0.55
2022-07-30T21:11:57.378Z,0.45
2022-07-30T21:14:57.334Z,0.55
2022-07-30T21:17:57.296Z,0.55
2022-07-30T21:20:57.989Z,0.5
2022-07-30T21:23:57.348Z,0.55
2022-07-30T21:26:57.289Z,0.4
2022-07-30T21:29:58.835Z,0.55
2022-07-30T21:32:57.384Z,0.4
2022-07-30T21:35:58.903Z,0.5
2022-07-30T21:38:57.336Z,0.45
2022-07-30T21:41:57.379Z,0.6
2022-07-30T21:44:57.383Z,0.55
2022-07-30T21:47:59.369Z,0.5
2022-07-30T21:50:57.369Z,0.6
2022-07-30T21:53:58.831Z,0.55
2022-07-30T21:56:59.028Z,0.5
2022-07-30T21:59:57.351Z,0.55
2022-07-30T22:02:58.118Z,0.35
2022-07-30T22:05:57.363Z,0.35
2022-07-30T22:08:57.349Z,0.35
2022-07-30T22:11:57.336Z,0.55
2022-07-30T22:14:57.375Z,0.4
2022-07-30T22:18:02.324Z,0.45
2022-07-30T22:20:58.300Z,0.35
2022-07-30T22:24:01.828Z,0.75
2022-07-30T22:26:59.910Z,0.35
2022-07-30T22:29:57.384Z,0.5
2022-07-30T22:32:57.350Z,0.6
2022-07-30T22:35:57.430Z,0.7
2022-07-30T22:38:59.643Z,0.9
2022-07-30T22:41:57.401Z,0.65
2022-07-30T22:44:57.969Z,0.8
2022-07-30T22:47:57.454Z,0.8
2022-07-30T22:50:59.580Z,0.95
2022-07-30T22:54:12.973Z,0.65
2022-07-30T22:57:03.841Z,0.65
2022-07-30T23:00:01.544Z,0.8
2022-07-30T23:02:57.443Z,0.45
2022-07-30T23:05:58.210Z,0.75
2022-07-30T23:08:57.404Z,0.65
2022-07-30T23:11:58.373Z,0.55
2022-07-30T23:14:57.392Z,0.6
2022-07-30T23:17:57.407Z,0.5
2022-07-30T23:21:01.289Z,0.3
2022-07-30T23:23:57.410Z,0.35
2022-07-30T23:26:57.419Z,0.45
2022-07-30T23:29:57.449Z,0.6
2022-07-30T23:32:57.462Z,0.85
2022-07-30T23:35:57.423Z,1.1
2022-07-30T23:38:58.912Z,0.75
2022-07-30T23:41:57.418Z,0.5
2022-07-30T23:44:57.398Z,0.65
2022-07-30T23:48:03.414Z,0.55
2022-07-30T23:50:57.433Z,0.25
2022-07-30T23:53:57.462Z,0.15
2022-07-30T23:56:57.502Z,0.05
2022-07-30T23:59:57.472Z,0.35
